Archival Weather

Chicago O'Hare International

Chicago, Illinois (KORD)

Report from: Monday, December 12, 2022 11:51 AM CST
Current time: Friday, June 21, 2024 3:46 AM CDT

Current weather – Weather history – Daily summaries
Weather forecast

Temperature5.6°C (42.1°F)
Wind chill2.8°C (37.1°F)
Dew point1.1°C (34.0°F)
Winds 7 kts (3.6 m/s, 8.1 mph) East (100°)
Visibility10 mi. (16.1 km)
Clouds Few clouds 2,100 ft. (640 m)
Ceiling: Overcast 3,100 ft. (945 m)
Altimeter30.28 in.Hg (1025 mB)
Precip last 3 hoursTrace
Relative humidity73 %
Density altitude-1,457 ft. (-444 m)
Sea-level pressure102.6 kPa (1026 mB, 30.29 in.Hg)
Max temp last 6 hours5.6°C (42.1°F)
Min temp last 6 hours1.7°C (35.1°F)
Remarks Automated weather observing station with precipitation discriminator
Pressure falling more quickly
Flight conditions Visual Meteorological Conditions
Raw dataKORD 121751Z 10007KT 10SM FEW021 OVC031 06/01 A3028 RMK AO2 SLP257 60000 T00560011 10056 20017 58006
An error has occurred. This application may no longer respond until reloaded. Reload 🗙